Time;durP1;ratioP1;P1;durP2;ratioP2;P2;SDS_P1;SDS_P2;PMS_P1;PMS_P2;Temp;Humidity;BMP_temperature;BMP_pressure;BME280_temperature;BME280_humidity;BME280_pressure;Samples;Min_cycle;Max_cycle;Signal;HPM_P1;HPM_P2
2024/04/19 00:01:04;;;;;;;7.28;1.58;;;7.90;99.90;;;;;;5363473;26;20019;-71
2024/04/19 00:03:30;;;;;;;6.85;1.55;;;7.90;99.90;;;;;;5346842;26;19997;-71
2024/04/19 00:05:55;;;;;;;7.18;1.27;;;7.90;99.90;;;;;;5362341;26;19993;-71
2024/04/19 00:08:21;;;;;;;5.65;1.20;;;7.90;99.90;;;;;;5358693;26;20015;-70
2024/04/19 00:10:47;;;;;;;3.42;0.90;;;7.90;99.90;;;;;;5353110;26;19997;-72
2024/04/19 00:13:12;;;;;;;12.43;1.55;;;7.90;99.90;;;;;;5355514;26;20003;-71
2024/04/19 00:15:41;;;;;;;5.47;2.05;;;7.90;99.90;;;;;;5331936;26;19997;-70
2024/04/19 00:18:06;;;;;;;10.07;1.52;;;7.90;99.90;;;;;;5355181;26;20007;-71
2024/04/19 00:20:32;;;;;;;4.78;1.25;;;7.90;99.90;;;;;;5355083;26;19996;-71
2024/04/19 00:22:58;;;;;;;6.80;1.00;;;7.90;99.90;;;;;;5354413;26;20000;-71
2024/04/19 00:25:23;;;;;;;6.47;1.08;;;7.90;99.90;;;;;;5357398;26;20546;-68
2024/04/19 00:27:49;;;;;;;7.68;1.45;;;7.90;99.90;;;;;;5352977;26;20004;-71
2024/04/19 00:30:14;;;;;;;3.85;0.88;;;7.90;99.90;;;;;;5340522;26;20074;-71
2024/04/19 00:32:40;;;;;;;2.00;0.82;;;7.90;99.90;;;;;;5361146;26;19996;-71
2024/04/19 00:35:05;;;;;;;6.05;0.90;;;7.80;99.90;;;;;;5357949;26;20012;-70
2024/04/19 00:37:33;;;;;;;14.73;1.00;;;7.80;99.90;;;;;;5324440;26;20000;-70
2024/04/19 00:39:59;;;;;;;6.00;1.02;;;7.80;99.90;;;;;;5358825;26;20015;-70
2024/04/19 00:42:25;;;;;;;4.18;1.35;;;7.80;99.90;;;;;;5357534;26;20353;-69
2024/04/19 00:44:50;;;;;;;5.20;0.88;;;7.80;99.90;;;;;;5354401;26;20024;-71
2024/04/19 00:47:17;;;;;;;6.20;1.35;;;7.80;99.90;;;;;;5357229;26;20069;-69
2024/04/19 00:49:43;;;;;;;8.80;1.20;;;7.80;99.90;;;;;;5362436;26;20407;-71
2024/04/19 00:52:12;;;;;;;8.48;2.10;;;7.70;99.90;;;;;;5365613;26;20008;-71
2024/04/19 00:54:39;;;;;;;5.45;1.42;;;7.80;99.90;;;;;;5328519;26;19997;-70
2024/04/19 00:57:04;;;;;;;3.90;1.15;;;7.70;99.90;;;;;;5327191;26;20010;-71
2024/04/19 00:59:30;;;;;;;7.50;0.88;;;7.80;99.90;;;;;;5354793;26;20000;-70
2024/04/19 01:01:56;;;;;;;11.00;2.05;;;7.70;99.90;;;;;;5352817;26;20016;-71
2024/04/19 01:04:22;;;;;;;4.53;1.00;;;7.80;99.90;;;;;;5368037;26;20000;-71
2024/04/19 01:06:48;;;;;;;2.25;1.10;;;7.70;99.90;;;;;;5355450;26;20035;-70
2024/04/19 01:09:15;;;;;;;3.65;0.70;;;7.80;99.90;;;;;;5362000;26;20504;-70
2024/04/19 01:11:40;;;;;;;2.55;0.88;;;7.80;99.90;;;;;;5349763;26;20015;-71
2024/04/19 01:14:07;;;;;;;5.15;0.65;;;7.80;99.90;;;;;;5357590;26;19996;-71
2024/04/19 01:16:33;;;;;;;5.43;0.65;;;7.80;99.90;;;;;;5359242;26;20011;-70
2024/04/19 01:18:59;;;;;;;3.22;1.38;;;7.70;99.90;;;;;;5349847;26;20882;-71
2024/04/19 01:21:25;;;;;;;3.33;0.52;;;7.80;99.90;;;;;;5357687;26;20000;-71
2024/04/19 01:24:19;;;;;;;7.13;1.85;;;7.80;99.90;;;;;;5356257;26;20461;-71
2024/04/19 01:26:44;;;;;;;4.20;0.60;;;7.80;99.90;;;;;;5359426;26;20005;-71
2024/04/19 01:29:10;;;;;;;2.30;0.90;;;7.80;99.90;;;;;;5351689;26;20525;-70
2024/04/19 01:31:36;;;;;;;3.42;1.20;;;7.80;99.90;;;;;;5352955;26;20015;-69
2024/04/19 01:34:01;;;;;;;5.43;0.95;;;7.80;99.90;;;;;;5360087;26;20014;-68
2024/04/19 01:36:27;;;;;;;4.55;1.05;;;7.80;99.90;;;;;;5352758;26;20005;-71
2024/04/19 01:38:53;;;;;;;5.85;0.90;;;7.80;99.90;;;;;;5353966;26;20342;-71
2024/04/19 01:41:19;;;;;;;2.97;0.90;;;7.80;99.90;;;;;;5329355;26;20005;-71
2024/04/19 01:43:44;;;;;;;5.93;1.35;;;7.80;99.90;;;;;;5351309;26;20334;-69
2024/04/19 01:46:10;;;;;;;7.35;1.88;;;7.80;99.90;;;;;;5334192;26;20011;-71
2024/04/19 01:48:35;;;;;;;11.82;1.42;;;7.80;99.90;;;;;;5344827;26;19997;-71
2024/04/19 01:51:01;;;;;;;7.43;1.23;;;7.80;99.90;;;;;;5356265;26;20771;-73
2024/04/19 01:53:26;;;;;;;4.25;1.05;;;7.80;99.90;;;;;;5355648;26;20004;-71
2024/04/19 01:55:52;;;;;;;6.20;1.25;;;7.80;99.90;;;;;;5355866;26;20012;-71
2024/04/19 01:58:18;;;;;;;4.47;1.00;;;7.80;99.90;;;;;;5364280;26;19997;-70
2024/04/19 02:00:43;;;;;;;5.80;1.33;;;7.80;99.90;;;;;;5355584;26;19996;-71
2024/04/19 02:03:09;;;;;;;2.35;1.02;;;7.80;99.90;;;;;;5362360;26;20032;-71
2024/04/19 02:05:34;;;;;;;5.05;0.82;;;7.80;99.90;;;;;;5358440;26;20004;-71
2024/04/19 02:07:59;;;;;;;4.95;1.25;;;7.80;99.90;;;;;;5322007;26;20076;-71
2024/04/19 02:10:25;;;;;;;3.28;1.08;;;7.90;99.90;;;;;;5355376;26;20612;-70
2024/04/19 02:12:50;;;;;;;9.25;1.38;;;7.90;99.90;;;;;;5353044;26;19993;-71
2024/04/19 02:15:19;;;;;;;7.65;1.25;;;7.90;99.90;;;;;;5369854;26;19997;-69
2024/04/19 02:17:48;;;;;;;4.72;1.38;;;7.90;99.90;;;;;;5373834;26;20439;-72
2024/04/19 02:20:14;;;;;;;5.70;1.33;;;7.90;99.90;;;;;;5351611;26;20009;-72
2024/04/19 02:22:39;;;;;;;7.45;1.40;;;7.90;99.90;;;;;;5358122;26;20000;-71
2024/04/19 02:25:05;;;;;;;5.00;1.75;;;7.90;99.90;;;;;;5349642;26;20001;-72
2024/04/19 02:32:59;;;;;;;3.83;1.58;;;8.00;99.90;;;;;;5361199;26;20209;-72
2024/04/19 02:35:24;;;;;;;6.80;1.70;;;7.90;99.90;;;;;;5354990;26;20848;-72
2024/04/19 02:37:50;;;;;;;5.40;1.13;;;8.00;99.90;;;;;;5353269;26;20017;-71
2024/04/19 02:40:15;;;;;;;4.22;1.27;;;8.00;99.90;;;;;;5361049;26;20019;-72
2024/04/19 02:42:41;;;;;;;9.15;1.73;;;8.00;99.90;;;;;;5355272;26;20403;-71
2024/04/19 02:45:07;;;;;;;4.80;1.30;;;8.00;99.90;;;;;;5351164;26;20417;-71
2024/04/19 02:47:32;;;;;;;3.97;1.42;;;8.00;99.90;;;;;;5358728;26;20000;-71
2024/04/19 02:49:58;;;;;;;7.25;1.15;;;8.10;99.90;;;;;;5356603;26;20022;-68
2024/04/19 02:52:23;;;;;;;5.03;1.50;;;8.10;99.90;;;;;;5334696;26;20008;-71
2024/04/19 02:54:49;;;;;;;8.52;1.65;;;8.10;99.90;;;;;;5362100;26;20023;-71
2024/04/19 02:57:14;;;;;;;2.13;1.38;;;8.20;99.90;;;;;;5361468;26;20018;-71
2024/04/19 02:59:40;;;;;;;3.97;1.40;;;8.20;99.90;;;;;;5363536;26;20015;-71
2024/04/19 03:02:05;;;;;;;5.03;1.58;;;8.20;99.90;;;;;;5354717;26;20016;-72
2024/04/19 03:04:31;;;;;;;2.60;1.30;;;8.20;99.90;;;;;;5368683;26;20204;-71
2024/04/19 03:06:56;;;;;;;4.47;1.17;;;8.20;99.90;;;;;;5325812;26;20074;-71
2024/04/19 03:09:22;;;;;;;2.83;1.10;;;8.30;99.90;;;;;;5356113;26;20015;-71
2024/04/19 03:11:47;;;;;;;9.40;1.65;;;8.30;99.90;;;;;;5354727;26;20001;-71
2024/04/19 03:14:13;;;;;;;2.70;1.23;;;8.30;99.90;;;;;;5357974;26;20008;-71
2024/04/19 03:16:38;;;;;;;5.47;1.42;;;8.30;99.90;;;;;;5368902;26;21355;-71
2024/04/19 03:19:04;;;;;;;4.90;1.40;;;8.30;99.90;;;;;;5356165;26;20000;-70
2024/04/19 03:21:30;;;;;;;3.40;1.40;;;8.40;99.90;;;;;;5357488;26;20007;-71
2024/04/19 03:23:56;;;;;;;1.50;1.30;;;8.40;99.90;;;;;;5356107;26;21866;-71
2024/04/19 03:26:23;;;;;;;2.58;1.30;;;8.40;99.90;;;;;;5356612;26;19997;-71
2024/04/19 03:28:49;;;;;;;7.57;1.90;;;8.40;99.90;;;;;;5353514;26;20015;-71
2024/04/19 03:31:15;;;;;;;2.65;1.70;;;8.50;99.90;;;;;;5368310;26;20055;-71
2024/04/19 03:33:40;;;;;;;4.13;1.40;;;8.50;99.90;;;;;;5352010;26;20087;-70
2024/04/19 03:36:06;;;;;;;4.72;1.73;;;8.50;99.90;;;;;;5355764;26;20004;-71
2024/04/19 03:38:32;;;;;;;3.90;1.50;;;8.50;99.90;;;;;;5359865;26;20008;-71
2024/04/19 03:40:57;;;;;;;4.22;1.40;;;8.50;99.90;;;;;;5368309;26;20000;-71
2024/04/19 03:43:32;;;;;;;5.53;2.13;;;8.60;99.90;;;;;;5354906;26;20013;-71
2024/04/19 03:45:59;;;;;;;3.42;2.05;;;8.60;99.90;;;;;;5355043;26;20020;-71
2024/04/19 03:48:26;;;;;;;2.60;1.45;;;8.70;99.90;;;;;;5324318;26;20350;-72
2024/04/19 03:50:52;;;;;;;2.95;1.33;;;8.70;99.90;;;;;;5363696;26;20609;-71
2024/04/19 03:53:17;;;;;;;5.57;1.48;;;8.70;99.90;;;;;;5369631;26;20003;-72
2024/04/19 03:55:43;;;;;;;2.70;1.27;;;8.70;99.90;;;;;;5332016;26;20008;-71
2024/04/19 03:58:09;;;;;;;3.75;1.50;;;8.80;99.90;;;;;;5355650;26;20004;-71
2024/04/19 04:00:40;;;;;;;4.28;1.92;;;8.80;99.90;;;;;;5328148;26;20008;-71
2024/04/19 04:03:06;;;;;;;3.67;1.52;;;8.90;99.90;;;;;;5354360;26;20008;-71
2024/04/19 04:05:36;;;;;;;4.70;1.70;;;8.90;99.90;;;;;;5352525;26;20615;-71
2024/04/19 04:08:01;;;;;;;4.85;2.15;;;8.90;99.90;;;;;;5353178;26;20001;-71
2024/04/19 04:10:27;;;;;;;3.63;1.58;;;8.90;99.90;;;;;;5340769;26;20005;-71
2024/04/19 04:12:52;;;;;;;4.03;1.83;;;9.00;99.90;;;;;;5362059;26;20000;-71
2024/04/19 04:15:18;;;;;;;4.70;2.08;;;9.00;99.90;;;;;;5322377;26;20020;-70
2024/04/19 04:17:43;;;;;;;5.75;2.25;;;9.00;99.90;;;;;;5364720;26;20118;-71
2024/04/19 04:20:09;;;;;;;8.27;3.00;;;9.10;99.90;;;;;;5350837;26;20331;-73
2024/04/19 04:22:34;;;;;;;12.02;3.10;;;9.10;99.90;;;;;;5333357;26;20429;-72
2024/04/19 04:25:00;;;;;;;8.75;3.38;;;9.10;99.90;;;;;;5353305;26;20383;-72
2024/04/19 04:27:26;;;;;;;10.13;2.83;;;9.10;99.90;;;;;;5320210;26;21419;-70
2024/04/19 04:29:51;;;;;;;9.02;3.47;;;9.10;99.90;;;;;;5354019;26;20004;-71
2024/04/19 04:32:17;;;;;;;9.65;3.05;;;9.20;99.90;;;;;;5349624;26;20751;-71
2024/04/19 04:34:44;;;;;;;11.07;3.20;;;9.10;99.90;;;;;;5360759;26;20001;-72
2024/04/19 04:37:09;;;;;;;9.05;3.08;;;9.20;99.90;;;;;;5358023;26;20016;-72
2024/04/19 04:39:35;;;;;;;11.95;2.92;;;9.20;99.90;;;;;;5354360;26;19996;-72
2024/04/19 04:42:01;;;;;;;9.43;2.80;;;9.20;99.90;;;;;;5353983;26;20000;-71
2024/04/19 04:44:32;;;;;;;10.00;3.28;;;9.20;99.90;;;;;;5352135;26;20495;-71
2024/04/19 04:46:58;;;;;;;11.77;2.75;;;9.20;99.90;;;;;;5353625;26;20082;-72
2024/04/19 04:49:24;;;;;;;12.23;2.70;;;9.30;99.90;;;;;;5364180;26;20036;-71
2024/04/19 04:51:49;;;;;;;10.73;3.40;;;9.30;99.90;;;;;;5340049;26;19996;-71
2024/04/19 04:54:15;;;;;;;15.02;2.83;;;9.30;99.90;;;;;;5354409;26;20022;-70
2024/04/19 04:56:40;;;;;;;9.38;2.50;;;9.30;99.90;;;;;;5354869;26;20000;-71
2024/04/19 04:59:06;;;;;;;9.05;2.90;;;9.30;99.90;;;;;;5358028;26;20016;-71
2024/04/19 05:01:31;;;;;;;12.13;2.45;;;9.30;99.90;;;;;;5325903;26;20000;-71
2024/04/19 05:03:57;;;;;;;21.63;2.78;;;9.30;99.90;;;;;;5353143;26;20033;-71
2024/04/19 05:06:22;;;;;;;12.90;3.83;;;9.30;99.90;;;;;;5351532;26;19992;-70
2024/04/19 05:08:48;;;;;;;9.70;1.95;;;9.30;99.90;;;;;;5353601;26;20441;-71
2024/04/19 05:11:13;;;;;;;11.57;1.95;;;9.30;99.90;;;;;;5354839;26;20000;-70
2024/04/19 05:13:39;;;;;;;16.45;1.50;;;9.40;99.90;;;;;;5356316;26;20008;-71
2024/04/19 05:16:05;;;;;;;8.27;2.22;;;9.40;99.90;;;;;;5363700;26;20003;-70
2024/04/19 05:18:31;;;;;;;7.68;1.38;;;9.30;99.90;;;;;;5339128;26;20012;-69
2024/04/19 05:20:56;;;;;;;6.57;1.70;;;9.40;99.90;;;;;;5350714;26;20004;-68
2024/04/19 05:23:22;;;;;;;7.40;2.20;;;9.40;99.90;;;;;;5344791;26;20112;-71
2024/04/19 05:25:50;;;;;;;12.82;3.20;;;9.40;99.90;;;;;;5351938;26;20016;-70
2024/04/19 05:28:16;;;;;;;10.95;3.13;;;9.40;99.90;;;;;;5359343;26;20000;-72
2024/04/19 05:30:42;;;;;;;15.90;3.25;;;9.40;99.90;;;;;;5361580;26;20003;-70
2024/04/19 05:33:07;;;;;;;13.05;1.98;;;9.50;99.90;;;;;;5355254;26;20036;-71
2024/04/19 05:35:33;;;;;;;10.80;2.30;;;9.50;99.90;;;;;;5368120;26;20437;-71
2024/04/19 05:37:58;;;;;;;13.52;1.92;;;9.50;99.90;;;;;;5357820;26;20400;-70
2024/04/19 05:40:24;;;;;;;14.20;3.13;;;9.50;99.90;;;;;;5366128;26;20556;-71
2024/04/19 05:42:52;;;;;;;6.80;1.88;;;9.50;99.90;;;;;;5363567;26;20011;-71
2024/04/19 05:45:18;;;;;;;10.32;1.52;;;9.50;99.90;;;;;;5352844;26;20000;-69
2024/04/19 05:47:44;;;;;;;9.40;1.48;;;9.50;99.90;;;;;;5324339;26;20041;-71
2024/04/19 05:50:10;;;;;;;9.15;2.45;;;9.50;99.90;;;;;;5347110;26;19997;-72
2024/04/19 05:52:35;;;;;;;9.00;2.22;;;9.50;99.90;;;;;;5348241;26;20075;-71
2024/04/19 05:55:01;;;;;;;11.77;1.70;;;9.50;99.90;;;;;;5346707;26;20011;-71
2024/04/19 05:57:26;;;;;;;12.02;1.27;;;9.40;99.90;;;;;;5369390;26;20004;-70
2024/04/19 05:59:54;;;;;;;12.95;2.28;;;9.40;99.90;;;;;;5356977;26;20011;-71
2024/04/19 06:02:20;;;;;;;3.80;0.75;;;9.40;99.90;;;;;;5331468;26;20058;-70
2024/04/19 06:04:45;;;;;;;16.67;2.28;;;9.40;99.90;;;;;;5372047;26;20000;-72
2024/04/19 06:07:10;;;;;;;11.02;1.35;;;9.30;99.90;;;;;;5353704;26;20019;-72
2024/04/19 06:09:36;;;;;;;6.88;0.90;;;9.30;99.90;;;;;;5348760;26;20454;-71
2024/04/19 06:12:02;;;;;;;7.55;0.90;;;9.30;99.90;;;;;;5355430;26;20012;-71
2024/04/19 06:14:28;;;;;;;11.45;1.50;;;9.30;99.90;;;;;;5355665;26;20000;-69
2024/04/19 06:16:53;;;;;;;10.27;1.48;;;9.40;99.90;;;;;;5353463;26;20031;-72
2024/04/19 06:19:19;;;;;;;14.43;2.42;;;9.40;99.90;;;;;;5348819;26;20099;-71
2024/04/19 06:21:45;;;;;;;9.52;1.65;;;9.50;99.90;;;;;;5352868;26;20078;-72
2024/04/19 06:24:10;;;;;;;13.13;2.35;;;9.50;99.90;;;;;;5353879;26;20000;-71
2024/04/19 06:26:37;;;;;;;8.80;1.73;;;9.60;99.90;;;;;;5364737;26;20028;-71
2024/04/19 06:29:03;;;;;;;16.13;2.42;;;9.60;99.90;;;;;;5361557;26;20000;-72
2024/04/19 06:31:28;;;;;;;8.18;2.42;;;9.60;99.90;;;;;;5350063;26;20005;-72
2024/04/19 06:33:54;;;;;;;6.95;1.85;;;9.70;99.90;;;;;;5358774;26;20297;-72
2024/04/19 06:36:20;;;;;;;6.38;1.20;;;9.70;99.90;;;;;;5358592;26;20095;-71
2024/04/19 06:38:45;;;;;;;10.52;1.10;;;9.60;99.90;;;;;;5324275;26;20354;-71
2024/04/19 06:41:11;;;;;;;12.50;1.95;;;9.60;99.90;;;;;;5358998;26;20008;-70
2024/04/19 06:43:36;;;;;;;7.18;1.77;;;9.60;99.90;;;;;;5328334;26;20000;-71
2024/04/19 06:46:02;;;;;;;7.50;1.00;;;9.60;99.90;;;;;;5360881;26;20000;-72
2024/04/19 06:48:27;;;;;;;3.83;0.63;;;9.50;99.90;;;;;;5353398;26;19997;-72
2024/04/19 06:50:53;;;;;;;10.65;1.77;;;9.40;99.90;;;;;;5357484;26;19996;-71
2024/04/19 06:53:19;;;;;;;4.47;0.55;;;9.40;99.90;;;;;;5353386;26;20001;-72
2024/04/19 06:55:44;;;;;;;4.55;1.13;;;9.30;99.90;;;;;;5358117;26;20004;-72
2024/04/19 06:58:10;;;;;;;13.98;1.75;;;9.30;99.90;;;;;;5354504;26;20008;-71
2024/04/19 07:00:41;;;;;;;13.10;1.98;;;9.30;99.90;;;;;;5356463;26;20019;-71
2024/04/19 07:03:06;;;;;;;10.18;1.42;;;9.30;99.90;;;;;;5362513;26;20023;-72
2024/04/19 07:05:32;;;;;;;6.30;1.20;;;9.40;99.90;;;;;;5356684;26;20005;-72
2024/04/19 07:07:58;;;;;;;9.82;1.20;;;9.40;99.90;;;;;;5358829;26;20028;-75
2024/04/19 07:10:23;;;;;;;14.18;2.35;;;9.60;99.90;;;;;;5352513;26;20001;-72
2024/04/19 07:12:50;;;;;;;9.52;2.03;;;9.60;99.90;;;;;;5356382;26;20000;-71
2024/04/19 07:15:16;;;;;;;13.63;2.22;;;9.60;99.90;;;;;;5353945;26;20094;-71
2024/04/19 07:17:41;;;;;;;11.60;1.85;;;9.70;99.90;;;;;;5356513;26;20005;-72
2024/04/19 07:20:08;;;;;;;8.25;2.45;;;9.70;99.90;;;;;;5355671;26;20016;-70
2024/04/19 07:22:34;;;;;;;5.32;1.30;;;9.70;99.90;;;;;;5353553;26;20020;-70
2024/04/19 07:25:00;;;;;;;5.35;1.30;;;9.80;99.90;;;;;;5357132;26;20001;-70
2024/04/19 07:27:26;;;;;;;2.85;0.70;;;9.70;99.90;;;;;;5354973;26;20071;-71
2024/04/19 07:29:52;;;;;;;1.70;0.38;;;9.60;99.90;;;;;;5359635;26;20008;-71
2024/04/19 07:32:20;;;;;;;4.18;0.93;;;9.60;99.90;;;;;;5362199;26;20015;-70
2024/04/19 07:34:45;;;;;;;4.82;0.50;;;9.70;99.90;;;;;;5360030;26;20012;-72
2024/04/19 07:37:11;;;;;;;4.60;1.30;;;9.60;99.90;;;;;;5354962;26;20436;-72
2024/04/19 07:39:36;;;;;;;5.97;1.00;;;9.70;99.90;;;;;;5359973;26;20016;-70
2024/04/19 07:42:02;;;;;;;5.68;0.60;;;9.70;99.90;;;;;;5356419;26;20004;-71
2024/04/19 07:44:27;;;;;;;5.90;0.73;;;9.70;99.90;;;;;;5352662;26;20422;-71
2024/04/19 07:46:53;;;;;;;4.78;1.17;;;9.80;99.90;;;;;;5356382;26;20344;-72
2024/04/19 07:49:18;;;;;;;11.85;1.58;;;10.00;99.90;;;;;;5354087;26;20005;-70
2024/04/19 07:51:44;;;;;;;9.20;1.15;;;10.10;99.90;;;;;;5356368;26;20008;-70
2024/04/19 07:54:10;;;;;;;10.55;2.28;;;10.30;99.90;;;;;;5368136;26;20000;-73
2024/04/19 07:56:35;;;;;;;8.82;1.33;;;10.40;99.90;;;;;;5348333;26;20020;-71
2024/04/19 07:59:01;;;;;;;6.97;1.40;;;10.50;99.90;;;;;;5356694;26;20009;-71
2024/04/19 08:01:27;;;;;;;7.82;1.23;;;10.60;99.90;;;;;;5356417;26;20000;-71
2024/04/19 08:03:52;;;;;;;12.43;1.30;;;10.70;99.90;;;;;;5359872;26;20014;-72
2024/04/19 08:06:18;;;;;;;5.70;1.65;;;10.60;99.90;;;;;;5365257;26;20019;-70
2024/04/19 08:08:45;;;;;;;11.27;2.28;;;10.60;99.90;;;;;;5352282;26;20000;-71
2024/04/19 08:11:11;;;;;;;6.53;2.00;;;10.70;99.90;;;;;;5355390;26;20011;-71
2024/04/19 08:13:40;;;;;;;7.72;1.10;;;10.70;99.90;;;;;;5356239;26;20005;-71
2024/04/19 08:16:06;;;;;;;5.60;1.00;;;10.60;99.90;;;;;;5355813;26;20079;-71
2024/04/19 08:18:31;;;;;;;7.43;1.65;;;10.60;99.90;;;;;;5359446;26;20089;-72
2024/04/19 08:20:57;;;;;;;5.80;0.80;;;10.50;99.90;;;;;;5355594;26;20461;-70
2024/04/19 08:23:25;;;;;;;7.72;1.38;;;10.30;99.90;;;;;;5359637;26;20000;-71
2024/04/19 08:25:51;;;;;;;1.88;0.30;;;10.10;99.90;;;;;;5354203;26;20468;-70
2024/04/19 08:28:17;;;;;;;1.50;0.40;;;9.80;99.90;;;;;;5353087;26;20152;-68
2024/04/19 08:30:42;;;;;;;3.42;0.73;;;9.60;99.90;;;;;;5356563;26;20450;-72
2024/04/19 08:33:08;;;;;;;11.60;0.80;;;9.50;99.90;;;;;;5356000;26;20020;-71
2024/04/19 08:35:33;;;;;;;5.97;0.60;;;9.40;99.90;;;;;;5355191;26;20008;-71
2024/04/19 08:37:59;;;;;;;7.75;0.40;;;9.30;99.90;;;;;;5355458;26;20077;-69
2024/04/19 08:40:24;;;;;;;2.92;0.60;;;9.30;99.90;;;;;;5358655;26;20000;-70
2024/04/19 08:42:51;;;;;;;4.63;0.50;;;9.30;99.90;;;;;;5351807;26;20005;-72
2024/04/19 08:45:20;;;;;;;3.28;0.60;;;9.30;99.90;;;;;;5351954;26;20000;-71
2024/04/19 08:47:46;;;;;;;3.60;0.50;;;9.30;99.90;;;;;;5359307;26;20027;-70
2024/04/19 08:50:12;;;;;;;10.38;1.38;;;9.30;99.90;;;;;;5366019;26;20004;-71
2024/04/19 08:52:39;;;;;;;9.13;1.17;;;9.40;99.90;;;;;;5354593;26;20099;-70
2024/04/19 08:55:08;;;;;;;6.10;0.50;;;9.50;99.90;;;;;;5370865;26;20008;-71
2024/04/19 08:57:35;;;;;;;1.92;0.55;;;9.60;99.90;;;;;;5359142;26;20016;-70
2024/04/19 09:00:03;;;;;;;7.13;0.50;;;9.60;99.90;;;;;;5354337;26;20011;-72
2024/04/19 09:02:28;;;;;;;6.88;0.50;;;9.80;99.90;;;;;;5334830;26;20412;-73
2024/04/19 09:04:54;;;;;;;3.88;0.50;;;9.90;99.90;;;;;;5361962;26;19997;-71
2024/04/19 09:07:19;;;;;;;1.33;0.22;;;10.00;99.90;;;;;;5365058;26;20011;-70
2024/04/19 09:09:47;;;;;;;1.33;0.32;;;10.10;99.90;;;;;;5351628;26;20087;-72
2024/04/19 09:12:12;;;;;;;3.22;0.32;;;10.10;99.90;;;;;;5340091;26;20090;-70
2024/04/19 09:14:38;;;;;;;2.00;0.73;;;10.20;99.90;;;;;;5368361;26;20012;-71
2024/04/19 09:17:04;;;;;;;1.20;0.47;;;10.20;99.90;;;;;;5360624;26;20011;-72
2024/04/19 09:19:29;;;;;;;3.72;0.20;;;10.20;99.90;;;;;;5350083;26;20004;-73
2024/04/19 09:21:55;;;;;;;2.75;0.73;;;10.20;99.90;;;;;;5351359;26;20004;-71
2024/04/19 09:24:21;;;;;;;2.28;0.22;;;10.10;99.90;;;;;;5355854;26;20014;-72
2024/04/19 09:26:47;;;;;;;0.32;0.10;;;10.10;99.90;;;;;;5353458;26;20041;-72
2024/04/19 09:29:14;;;;;;;0.43;0.20;;;10.00;99.90;;;;;;5360313;26;20007;-72
2024/04/19 09:31:42;;;;;;;1.13;0.30;;;10.10;99.90;;;;;;5355820;26;20004;-72
2024/04/19 09:34:08;;;;;;;1.08;0.10;;;10.30;99.90;;;;;;5350097;26;20001;-71
2024/04/19 09:36:33;;;;;;;1.50;0.35;;;10.50;99.90;;;;;;5356291;26;20015;-72
2024/04/19 09:39:01;;;;;;;1.85;0.10;;;10.60;99.90;;;;;;5357025;26;20004;-71
2024/04/19 09:41:28;;;;;;;0.93;0.10;;;10.90;99.90;;;;;;5358038;26;20015;-75
2024/04/19 09:43:58;;;;;;;3.22;0.30;;;11.00;99.90;;;;;;5352853;26;20073;-71
2024/04/19 09:46:28;;;;;;;0.88;0.05;;;11.00;99.90;;;;;;5353075;26;20001;-72
2024/04/19 09:48:58;;;;;;;3.30;0.13;;;11.10;99.90;;;;;;5353676;26;20004;-71
2024/04/19 09:51:33;;;;;;;1.08;0.45;;;11.00;99.90;;;;;;5353643;26;20490;-71
2024/04/19 09:54:04;;;;;;;1.90;0.35;;;10.90;99.90;;;;;;5350428;26;20004;-71
2024/04/19 09:56:35;;;;;;;1.63;0.10;;;10.70;99.90;;;;;;5320002;26;20140;-71
2024/04/19 09:59:01;;;;;;;;;;;10.70;99.90;;;;;;5358755;26;20014;-72
2024/04/19 10:01:28;;;;;;;7.05;0.30;;;10.60;99.90;;;;;;5354220;26;19945;-72
2024/04/19 10:03:54;;;;;;;3.63;0.52;;;10.50;99.90;;;;;;5358443;26;20460;-72
2024/04/19 10:06:23;;;;;;;5.57;0.77;;;10.50;99.90;;;;;;5356670;26;20380;-71
2024/04/19 10:08:50;;;;;;;9.35;1.40;;;10.40;99.90;;;;;;5357445;26;20008;-68
2024/04/19 10:11:16;;;;;;;5.45;0.90;;;10.30;99.90;;;;;;5353274;26;20008;-68
2024/04/19 10:13:42;;;;;;;1.50;0.43;;;10.30;99.90;;;;;;5320450;26;20399;-71
2024/04/19 10:16:07;;;;;;;6.50;0.70;;;10.30;99.90;;;;;;5352440;26;20337;-73
2024/04/19 10:18:36;;;;;;;4.00;0.47;;;10.50;99.90;;;;;;5355059;26;20464;-71
2024/04/19 10:21:02;;;;;;;2.30;0.70;;;10.70;99.90;;;;;;5352283;26;20047;-69
2024/04/19 10:23:28;;;;;;;3.42;0.50;;;10.80;99.90;;;;;;5355105;26;20442;-71
2024/04/19 10:25:57;;;;;;;3.75;0.47;;;11.00;99.90;;;;;;5322041;26;20020;-72
2024/04/19 10:28:26;;;;;;;2.55;0.60;;;11.00;99.90;;;;;;5353706;26;20005;-70
2024/04/19 10:30:53;;;;;;;1.83;0.30;;;11.00;99.90;;;;;;5347947;26;20085;-73
2024/04/19 10:33:20;;;;;;;4.57;1.10;;;11.00;99.90;;;;;;5353410;26;20016;-70
2024/04/19 10:35:46;;;;;;;2.20;0.57;;;11.00;99.90;;;;;;5356114;26;20078;-69
2024/04/19 10:38:12;;;;;;;9.98;1.00;;;11.10;99.90;;;;;;5350565;26;20005;-71
2024/04/19 10:40:38;;;;;;;6.15;1.15;;;11.30;99.90;;;;;;5361938;26;20015;-71
2024/04/19 10:43:05;;;;;;;11.73;1.38;;;11.40;99.90;;;;;;5350046;26;20008;-71
2024/04/19 10:45:31;;;;;;;10.65;1.17;;;11.50;99.90;;;;;;5326300;26;20004;-72
2024/04/19 10:47:57;;;;;;;5.50;0.85;;;11.30;99.90;;;;;;5353124;26;20015;-71
2024/04/19 10:50:23;;;;;;;13.05;1.27;;;11.20;99.90;;;;;;5350891;26;20001;-70
2024/04/19 10:52:52;;;;;;;8.35;1.52;;;11.00;99.90;;;;;;5357730;26;20014;-71
2024/04/19 10:55:18;;;;;;;9.27;1.33;;;11.00;99.90;;;;;;5353187;26;20012;-68
2024/04/19 10:57:44;;;;;;;13.75;1.98;;;11.00;99.90;;;;;;5356184;26;20077;-70
2024/04/19 11:00:10;;;;;;;7.32;1.65;;;11.30;99.90;;;;;;5351837;26;20012;-71
2024/04/19 11:02:37;;;;;;;9.05;1.27;;;11.50;99.90;;;;;;5330509;26;20004;-70
2024/04/19 11:05:04;;;;;;;9.43;0.95;;;11.60;99.90;;;;;;5347829;26;20449;-70
2024/04/19 11:07:30;;;;;;;5.20;0.77;;;11.80;99.90;;;;;;5357338;26;20012;-73
2024/04/19 11:09:56;;;;;;;10.10;1.25;;;11.60;99.90;;;;;;5355789;26;20464;-71
2024/04/19 11:12:23;;;;;;;2.60;0.82;;;11.50;99.90;;;;;;5357681;26;20533;-71
2024/04/19 11:14:48;;;;;;;7.93;1.55;;;11.50;99.90;;;;;;5357737;26;20045;-71
2024/04/19 11:17:15;;;;;;;4.80;0.38;;;11.50;99.90;;;;;;5355018;26;20445;-71
2024/04/19 11:19:40;;;;;;;3.47;0.30;;;11.20;99.90;;;;;;5358048;26;20003;-70
2024/04/19 11:22:06;;;;;;;3.00;0.90;;;10.50;99.90;;;;;;5360198;26;20004;-71
2024/04/19 11:24:34;;;;;;;4.32;0.25;;;10.00;99.90;;;;;;5359371;26;20073;-71
2024/04/19 11:27:00;;;;;;;4.30;0.47;;;9.70;99.90;;;;;;5361949;26;20041;-71
2024/04/19 11:29:25;;;;;;;6.70;1.98;;;9.60;99.90;;;;;;5329017;26;20086;-70
2024/04/19 11:31:51;;;;;;;6.13;1.17;;;9.70;99.90;;;;;;5356945;26;20338;-71
2024/04/19 11:34:17;;;;;;;5.53;0.95;;;9.80;99.90;;;;;;5356771;26;20131;-69
2024/04/19 11:36:43;;;;;;;10.30;0.90;;;10.10;99.90;;;;;;5325530;26;20000;-70
2024/04/19 11:39:11;;;;;;;7.82;0.88;;;10.30;99.90;;;;;;5361667;26;20004;-71
2024/04/19 11:41:39;;;;;;;5.35;0.60;;;10.40;99.90;;;;;;5359238;26;20078;-69
2024/04/19 11:44:05;;;;;;;7.03;0.55;;;10.50;99.90;;;;;;5361011;26;20005;-70
2024/04/19 11:46:34;;;;;;;4.65;0.63;;;10.50;99.90;;;;;;5359445;26;20499;-71
2024/04/19 11:49:04;;;;;;;6.53;1.05;;;10.60;99.90;;;;;;5353632;26;20002;-71
2024/04/19 11:51:30;;;;;;;3.07;0.67;;;10.50;99.90;;;;;;5329896;26;20333;-73
2024/04/19 11:53:56;;;;;;;7.40;0.57;;;10.70;99.90;;;;;;5369075;26;20412;-71
2024/04/19 11:56:21;;;;;;;4.65;0.30;;;10.80;99.90;;;;;;5364366;26;20001;-70
2024/04/19 11:58:52;;;;;;;3.45;0.30;;;10.70;99.90;;;;;;5326131;26;20070;-73
2024/04/19 12:01:18;;;;;;;4.28;0.30;;;10.50;99.90;;;;;;5357274;26;20013;-69
2024/04/19 12:03:44;;;;;;;5.10;0.32;;;10.10;99.90;;;;;;5357619;26;20074;-70
2024/04/19 12:06:09;;;;;;;5.55;0.40;;;10.10;99.90;;;;;;5359709;26;20008;-71
2024/04/19 12:08:35;;;;;;;1.05;0.47;;;10.20;99.90;;;;;;5352541;26;19997;-71
2024/04/19 12:11:00;;;;;;;2.28;0.32;;;10.20;99.90;;;;;;5328721;26;20000;-71
2024/04/19 12:13:26;;;;;;;3.13;0.50;;;10.20;99.90;;;;;;5355210;26;20023;-69
2024/04/19 12:15:51;;;;;;;6.38;0.95;;;10.20;99.90;;;;;;5354463;26;20012;-70
2024/04/19 12:18:17;;;;;;;6.18;0.98;;;10.30;99.90;;;;;;5357951;26;19996;-70
2024/04/19 12:20:42;;;;;;;8.52;0.80;;;10.60;99.90;;;;;;5351246;26;20403;-71
2024/04/19 12:23:08;;;;;;;1.40;0.28;;;10.80;99.90;;;;;;5359930;26;20004;-71
2024/04/19 12:25:34;;;;;;;5.32;0.63;;;11.00;99.90;;;;;;5351736;26;20001;-72
2024/04/19 12:28:00;;;;;;;5.78;1.00;;;11.20;99.90;;;;;;5358379;26;20453;-69
2024/04/19 12:30:27;;;;;;;3.63;0.45;;;10.90;99.90;;;;;;5354577;26;20024;-73
2024/04/19 12:32:53;;;;;;;2.53;0.47;;;10.70;99.90;;;;;;5326625;26;20013;-70
2024/04/19 12:35:19;;;;;;;5.70;0.93;;;10.50;99.90;;;;;;5355718;26;20001;-71
2024/04/19 12:37:45;;;;;;;8.65;2.28;;;10.60;99.90;;;;;;5355008;26;20086;-71
2024/04/19 12:40:11;;;;;;;2.88;0.43;;;10.60;99.90;;;;;;5355740;26;20001;-72
2024/04/19 12:42:36;;;;;;;6.40;0.70;;;10.20;99.90;;;;;;5353958;26;20154;-71
2024/04/19 12:45:02;;;;;;;9.13;1.38;;;9.60;99.90;;;;;;5359296;26;20039;-69
2024/04/19 12:47:28;;;;;;;6.20;0.63;;;9.40;99.90;;;;;;5318042;26;20015;-71
2024/04/19 12:49:53;;;;;;;8.57;1.00;;;9.30;99.90;;;;;;5352328;26;20000;-70
2024/04/19 12:52:19;;;;;;;4.43;0.60;;;9.20;99.90;;;;;;5356144;26;20424;-71